sensor_id;sensor_type;location;lat;lon;timestamp;temperature;humidity
37972;DHT22;23794;48.234;8.344;2022-10-22T00:02:21;11.50;99.90
37972;DHT22;23794;48.234;8.344;2022-10-22T00:04:49;11.60;99.90
37972;DHT22;23794;48.234;8.344;2022-10-22T00:07:17;11.70;99.90
37972;DHT22;23794;48.234;8.344;2022-10-22T00:09:44;11.80;99.90
37972;DHT22;23794;48.234;8.344;2022-10-22T00:12:13;11.80;99.90
37972;DHT22;23794;48.234;8.344;2022-10-22T00:14:40;11.80;99.90
37972;DHT22;23794;48.234;8.344;2022-10-22T00:17:07;11.90;99.90
37972;DHT22;23794;48.234;8.344;2022-10-22T00:19:38;11.80;99.90
37972;DHT22;23794;48.234;8.344;2022-10-22T00:22:05;11.70;99.90
37972;DHT22;23794;48.234;8.344;2022-10-22T00:24:33;11.70;99.90
37972;DHT22;23794;48.234;8.344;2022-10-22T00:27:00;11.80;99.90
37972;DHT22;23794;48.234;8.344;2022-10-22T00:29:27;11.90;99.90
37972;DHT22;23794;48.234;8.344;2022-10-22T00:31:55;11.90;99.90
37972;DHT22;23794;48.234;8.344;2022-10-22T00:34:27;11.90;99.90
37972;DHT22;23794;48.234;8.344;2022-10-22T00:36:54;12.00;99.90
37972;DHT22;23794;48.234;8.344;2022-10-22T00:39:22;11.90;99.90
37972;DHT22;23794;48.234;8.344;2022-10-22T00:41:51;11.70;99.90
37972;DHT22;23794;48.234;8.344;2022-10-22T00:47:24;11.60;99.90
37972;DHT22;23794;48.234;8.344;2022-10-22T00:49:52;11.60;99.90
37972;DHT22;23794;48.234;8.344;2022-10-22T00:52:21;11.60;99.90
37972;DHT22;23794;48.234;8.344;2022-10-22T00:54:48;11.80;99.90
37972;DHT22;23794;48.234;8.344;2022-10-22T00:57:17;11.80;99.90
37972;DHT22;23794;48.234;8.344;2022-10-22T00:59:46;11.80;99.90
37972;DHT22;23794;48.234;8.344;2022-10-22T01:02:13;11.90;99.90
37972;DHT22;23794;48.234;8.344;2022-10-22T01:04:40;11.90;99.90
37972;DHT22;23794;48.234;8.344;2022-10-22T01:07:15;11.90;99.90
37972;DHT22;23794;48.234;8.344;2022-10-22T01:20:50;11.80;99.90
37972;DHT22;23794;48.234;8.344;2022-10-22T01:29:08;11.90;99.90
37972;DHT22;23794;48.234;8.344;2022-10-22T01:31:41;11.80;99.90
37972;DHT22;23794;48.234;8.344;2022-10-22T01:34:12;11.70;99.90
37972;DHT22;23794;48.234;8.344;2022-10-22T01:36:40;11.70;99.90
37972;DHT22;23794;48.234;8.344;2022-10-22T01:39:08;11.70;99.90
37972;DHT22;23794;48.234;8.344;2022-10-22T01:41:38;11.70;99.90
37972;DHT22;23794;48.234;8.344;2022-10-22T01:44:05;11.80;99.90
37972;DHT22;23794;48.234;8.344;2022-10-22T01:46:32;11.80;99.90
37972;DHT22;23794;48.234;8.344;2022-10-22T01:49:22;11.90;99.90
37972;DHT22;23794;48.234;8.344;2022-10-22T01:54:44;11.90;99.90
37972;DHT22;23794;48.234;8.344;2022-10-22T01:57:22;11.80;99.90
37972;DHT22;23794;48.234;8.344;2022-10-22T02:05:22;11.90;99.90
37972;DHT22;23794;48.234;8.344;2022-10-22T02:07:59;11.90;99.90
37972;DHT22;23794;48.234;8.344;2022-10-22T02:10:28;11.90;99.90
37972;DHT22;23794;48.234;8.344;2022-10-22T02:12:56;11.90;99.90
37972;DHT22;23794;48.234;8.344;2022-10-22T02:15:26;11.90;99.90
37972;DHT22;23794;48.234;8.344;2022-10-22T02:17:56;11.90;99.90
37972;DHT22;23794;48.234;8.344;2022-10-22T02:20:28;11.80;99.90
37972;DHT22;23794;48.234;8.344;2022-10-22T02:22:55;11.80;99.90
37972;DHT22;23794;48.234;8.344;2022-10-22T02:25:24;11.70;99.90
37972;DHT22;23794;48.234;8.344;2022-10-22T02:28:03;11.70;99.90
37972;DHT22;23794;48.234;8.344;2022-10-22T02:30:35;11.80;99.90
37972;DHT22;23794;48.234;8.344;2022-10-22T02:33:10;11.80;99.90
37972;DHT22;23794;48.234;8.344;2022-10-22T02:35:38;11.70;99.90
37972;DHT22;23794;48.234;8.344;2022-10-22T02:38:06;11.60;99.90
37972;DHT22;23794;48.234;8.344;2022-10-22T02:40:33;11.70;99.90
37972;DHT22;23794;48.234;8.344;2022-10-22T02:43:03;11.80;99.90
37972;DHT22;23794;48.234;8.344;2022-10-22T02:45:31;11.70;99.90
37972;DHT22;23794;48.234;8.344;2022-10-22T02:47:58;11.70;99.90
37972;DHT22;23794;48.234;8.344;2022-10-22T02:50:24;11.60;99.90
37972;DHT22;23794;48.234;8.344;2022-10-22T02:52:51;11.70;99.90
37972;DHT22;23794;48.234;8.344;2022-10-22T02:55:18;11.70;99.90
37972;DHT22;23794;48.234;8.344;2022-10-22T02:57:44;11.60;99.90
37972;DHT22;23794;48.234;8.344;2022-10-22T03:00:12;11.40;99.90
37972;DHT22;23794;48.234;8.344;2022-10-22T03:02:39;11.40;99.90
37972;DHT22;23794;48.234;8.344;2022-10-22T03:05:06;11.50;99.90
37972;DHT22;23794;48.234;8.344;2022-10-22T03:07:33;11.60;99.90
37972;DHT22;23794;48.234;8.344;2022-10-22T03:10:00;11.70;99.90
37972;DHT22;23794;48.234;8.344;2022-10-22T03:12:26;11.70;99.90
37972;DHT22;23794;48.234;8.344;2022-10-22T03:14:53;11.70;99.90
37972;DHT22;23794;48.234;8.344;2022-10-22T03:17:20;11.70;99.90
37972;DHT22;23794;48.234;8.344;2022-10-22T03:19:47;11.80;99.90
37972;DHT22;23794;48.234;8.344;2022-10-22T03:22:18;11.60;99.90
37972;DHT22;23794;48.234;8.344;2022-10-22T03:24:50;11.50;99.90
37972;DHT22;23794;48.234;8.344;2022-10-22T03:27:20;11.50;99.90
37972;DHT22;23794;48.234;8.344;2022-10-22T03:29:49;11.60;99.90
37972;DHT22;23794;48.234;8.344;2022-10-22T03:32:17;11.60;99.90
37972;DHT22;23794;48.234;8.344;2022-10-22T03:34:44;11.60;99.90
37972;DHT22;23794;48.234;8.344;2022-10-22T03:37:11;11.60;99.90
37972;DHT22;23794;48.234;8.344;2022-10-22T03:39:38;11.60;99.90
37972;DHT22;23794;48.234;8.344;2022-10-22T03:42:05;11.60;99.90
37972;DHT22;23794;48.234;8.344;2022-10-22T03:44:35;11.60;99.90
37972;DHT22;23794;48.234;8.344;2022-10-22T03:47:02;11.50;99.90
37972;DHT22;23794;48.234;8.344;2022-10-22T03:49:29;11.40;99.90
37972;DHT22;23794;48.234;8.344;2022-10-22T03:51:56;11.50;99.90
37972;DHT22;23794;48.234;8.344;2022-10-22T03:54:23;11.50;99.90
37972;DHT22;23794;48.234;8.344;2022-10-22T03:56:50;11.60;99.90
37972;DHT22;23794;48.234;8.344;2022-10-22T03:59:16;11.60;99.90
37972;DHT22;23794;48.234;8.344;2022-10-22T04:01:43;11.30;99.90
37972;DHT22;23794;48.234;8.344;2022-10-22T04:04:10;11.20;99.90
37972;DHT22;23794;48.234;8.344;2022-10-22T04:06:37;11.40;99.90
37972;DHT22;23794;48.234;8.344;2022-10-22T04:09:03;11.30;99.90
37972;DHT22;23794;48.234;8.344;2022-10-22T04:11:30;11.20;99.90
37972;DHT22;23794;48.234;8.344;2022-10-22T04:13:57;11.00;99.90
37972;DHT22;23794;48.234;8.344;2022-10-22T04:16:24;11.00;99.90
37972;DHT22;23794;48.234;8.344;2022-10-22T04:18:56;11.00;99.90
37972;DHT22;23794;48.234;8.344;2022-10-22T04:21:23;11.00;99.90
37972;DHT22;23794;48.234;8.344;2022-10-22T04:23:51;11.00;99.90
37972;DHT22;23794;48.234;8.344;2022-10-22T04:26:18;11.10;99.90
37972;DHT22;23794;48.234;8.344;2022-10-22T04:28:47;11.00;99.90
37972;DHT22;23794;48.234;8.344;2022-10-22T04:31:16;11.00;99.90
37972;DHT22;23794;48.234;8.344;2022-10-22T04:33:44;11.00;99.90
37972;DHT22;23794;48.234;8.344;2022-10-22T04:36:16;10.90;99.90
37972;DHT22;23794;48.234;8.344;2022-10-22T04:38:45;10.90;99.90
37972;DHT22;23794;48.234;8.344;2022-10-22T04:41:16;10.80;99.90
37972;DHT22;23794;48.234;8.344;2022-10-22T04:43:44;10.80;99.90
37972;DHT22;23794;48.234;8.344;2022-10-22T04:46:12;10.70;99.90
37972;DHT22;23794;48.234;8.344;2022-10-22T04:48:40;10.80;99.90
37972;DHT22;23794;48.234;8.344;2022-10-22T04:51:10;10.80;99.90
37972;DHT22;23794;48.234;8.344;2022-10-22T04:53:37;10.90;99.90
37972;DHT22;23794;48.234;8.344;2022-10-22T04:59:05;10.90;99.90
37972;DHT22;23794;48.234;8.344;2022-10-22T05:01:34;10.80;99.90
37972;DHT22;23794;48.234;8.344;2022-10-22T05:04:12;10.80;99.90
37972;DHT22;23794;48.234;8.344;2022-10-22T05:06:39;10.70;99.90
37972;DHT22;23794;48.234;8.344;2022-10-22T05:09:09;10.70;99.90
37972;DHT22;23794;48.234;8.344;2022-10-22T05:11:38;10.80;99.90
37972;DHT22;23794;48.234;8.344;2022-10-22T05:14:07;10.90;99.90
37972;DHT22;23794;48.234;8.344;2022-10-22T05:16:35;11.00;99.90
37972;DHT22;23794;48.234;8.344;2022-10-22T05:19:04;11.00;99.90
37972;DHT22;23794;48.234;8.344;2022-10-22T05:21:31;11.10;99.90
37972;DHT22;23794;48.234;8.344;2022-10-22T05:23:58;11.00;99.90
37972;DHT22;23794;48.234;8.344;2022-10-22T05:26:26;11.10;99.90
37972;DHT22;23794;48.234;8.344;2022-10-22T05:28:53;11.20;99.90
37972;DHT22;23794;48.234;8.344;2022-10-22T05:31:19;11.20;99.90
37972;DHT22;23794;48.234;8.344;2022-10-22T05:33:46;11.20;99.90
37972;DHT22;23794;48.234;8.344;2022-10-22T05:36:18;11.10;99.90
37972;DHT22;23794;48.234;8.344;2022-10-22T05:38:45;11.10;99.90
37972;DHT22;23794;48.234;8.344;2022-10-22T05:41:15;11.00;99.90
37972;DHT22;23794;48.234;8.344;2022-10-22T05:43:42;11.00;99.90
37972;DHT22;23794;48.234;8.344;2022-10-22T05:46:14;11.00;99.90
37972;DHT22;23794;48.234;8.344;2022-10-22T05:48:51;11.00;99.90
37972;DHT22;23794;48.234;8.344;2022-10-22T05:51:19;11.00;99.90
37972;DHT22;23794;48.234;8.344;2022-10-22T05:53:49;11.00;99.90
37972;DHT22;23794;48.234;8.344;2022-10-22T05:56:16;10.90;99.90
37972;DHT22;23794;48.234;8.344;2022-10-22T05:58:44;10.80;99.90
37972;DHT22;23794;48.234;8.344;2022-10-22T06:01:22;10.60;99.90
37972;DHT22;23794;48.234;8.344;2022-10-22T06:03:52;10.60;99.90
37972;DHT22;23794;48.234;8.344;2022-10-22T06:06:26;10.70;99.90
37972;DHT22;23794;48.234;8.344;2022-10-22T06:08:54;10.80;99.90
37972;DHT22;23794;48.234;8.344;2022-10-22T06:11:22;10.70;99.90
37972;DHT22;23794;48.234;8.344;2022-10-22T06:13:49;10.70;99.90
37972;DHT22;23794;48.234;8.344;2022-10-22T06:16:16;10.70;99.90
37972;DHT22;23794;48.234;8.344;2022-10-22T06:18:43;10.90;99.90
37972;DHT22;23794;48.234;8.344;2022-10-22T06:21:12;11.00;99.90
37972;DHT22;23794;48.234;8.344;2022-10-22T06:23:40;10.90;99.90
37972;DHT22;23794;48.234;8.344;2022-10-22T06:26:08;11.00;99.90
37972;DHT22;23794;48.234;8.344;2022-10-22T06:28:35;11.00;99.90
37972;DHT22;23794;48.234;8.344;2022-10-22T06:31:03;11.00;99.90
37972;DHT22;23794;48.234;8.344;2022-10-22T06:33:31;10.80;99.90
37972;DHT22;23794;48.234;8.344;2022-10-22T06:36:13;10.70;99.90
37972;DHT22;23794;48.234;8.344;2022-10-22T06:38:41;10.80;99.90
37972;DHT22;23794;48.234;8.344;2022-10-22T06:41:10;10.80;99.90
37972;DHT22;23794;48.234;8.344;2022-10-22T06:43:37;10.80;99.90
37972;DHT22;23794;48.234;8.344;2022-10-22T06:46:07;10.80;99.90
37972;DHT22;23794;48.234;8.344;2022-10-22T06:48:36;10.90;99.90
37972;DHT22;23794;48.234;8.344;2022-10-22T06:51:05;10.90;99.90
37972;DHT22;23794;48.234;8.344;2022-10-22T06:53:33;11.10;99.90
37972;DHT22;23794;48.234;8.344;2022-10-22T06:56:04;11.20;99.90
37972;DHT22;23794;48.234;8.344;2022-10-22T06:58:32;11.30;99.90
37972;DHT22;23794;48.234;8.344;2022-10-22T07:01:07;11.40;99.90
37972;DHT22;23794;48.234;8.344;2022-10-22T07:03:34;11.50;99.90
37972;DHT22;23794;48.234;8.344;2022-10-22T07:06:03;11.50;99.90
37972;DHT22;23794;48.234;8.344;2022-10-22T07:08:30;11.60;99.90
37972;DHT22;23794;48.234;8.344;2022-10-22T07:11:07;11.50;99.90
37972;DHT22;23794;48.234;8.344;2022-10-22T07:13:34;11.50;99.90
37972;DHT22;23794;48.234;8.344;2022-10-22T07:16:02;11.50;99.90
37972;DHT22;23794;48.234;8.344;2022-10-22T07:18:30;11.60;99.90
37972;DHT22;23794;48.234;8.344;2022-10-22T07:20:56;11.60;99.90
37972;DHT22;23794;48.234;8.344;2022-10-22T07:23:23;11.60;99.90
37972;DHT22;23794;48.234;8.344;2022-10-22T07:25:51;11.50;99.90
37972;DHT22;23794;48.234;8.344;2022-10-22T07:28:18;11.50;99.90
37972;DHT22;23794;48.234;8.344;2022-10-22T07:30:45;11.40;99.90
37972;DHT22;23794;48.234;8.344;2022-10-22T07:33:12;11.60;99.90
37972;DHT22;23794;48.234;8.344;2022-10-22T07:35:39;11.60;99.90
37972;DHT22;23794;48.234;8.344;2022-10-22T07:38:07;11.70;99.90
37972;DHT22;23794;48.234;8.344;2022-10-22T07:40:35;11.70;99.90
37972;DHT22;23794;48.234;8.344;2022-10-22T07:43:03;11.80;99.90
37972;DHT22;23794;48.234;8.344;2022-10-22T07:45:30;12.00;99.90
37972;DHT22;23794;48.234;8.344;2022-10-22T07:47:56;12.20;99.90
37972;DHT22;23794;48.234;8.344;2022-10-22T07:50:25;12.20;99.90
37972;DHT22;23794;48.234;8.344;2022-10-22T07:52:52;12.30;99.90
37972;DHT22;23794;48.234;8.344;2022-10-22T07:55:23;12.50;99.90
37972;DHT22;23794;48.234;8.344;2022-10-22T07:57:50;12.50;99.90
37972;DHT22;23794;48.234;8.344;2022-10-22T08:00:17;12.50;99.90
37972;DHT22;23794;48.234;8.344;2022-10-22T08:02:48;12.70;99.90
37972;DHT22;23794;48.234;8.344;2022-10-22T08:05:15;12.70;99.90
37972;DHT22;23794;48.234;8.344;2022-10-22T08:07:42;12.80;99.90
37972;DHT22;23794;48.234;8.344;2022-10-22T08:10:10;13.00;99.90
37972;DHT22;23794;48.234;8.344;2022-10-22T08:12:38;13.20;99.90
37972;DHT22;23794;48.234;8.344;2022-10-22T08:15:06;13.30;99.90
37972;DHT22;23794;48.234;8.344;2022-10-22T08:17:33;13.40;99.90
37972;DHT22;23794;48.234;8.344;2022-10-22T08:19:59;13.60;99.90
37972;DHT22;23794;48.234;8.344;2022-10-22T08:22:26;13.70;99.90
37972;DHT22;23794;48.234;8.344;2022-10-22T08:24:53;13.80;99.90
37972;DHT22;23794;48.234;8.344;2022-10-22T08:27:20;13.90;99.90
37972;DHT22;23794;48.234;8.344;2022-10-22T08:29:47;14.00;99.90
37972;DHT22;23794;48.234;8.344;2022-10-22T08:32:14;14.10;99.90
37972;DHT22;23794;48.234;8.344;2022-10-22T08:34:41;14.30;99.90
37972;DHT22;23794;48.234;8.344;2022-10-22T08:37:07;14.40;99.90
37972;DHT22;23794;48.234;8.344;2022-10-22T08:39:36;14.40;99.90
37972;DHT22;23794;48.234;8.344;2022-10-22T08:45:24;14.70;99.90
37972;DHT22;23794;48.234;8.344;2022-10-22T08:50:37;15.00;99.90
37972;DHT22;23794;48.234;8.344;2022-10-22T08:53:11;15.10;99.90
37972;DHT22;23794;48.234;8.344;2022-10-22T08:55:38;15.30;99.90
37972;DHT22;23794;48.234;8.344;2022-10-22T09:00:49;15.50;99.90
37972;DHT22;23794;48.234;8.344;2022-10-22T09:03:41;15.60;99.90
37972;DHT22;23794;48.234;8.344;2022-10-22T09:06:17;15.70;99.90
37972;DHT22;23794;48.234;8.344;2022-10-22T09:08:45;15.80;99.90
37972;DHT22;23794;48.234;8.344;2022-10-22T09:11:22;16.10;99.90
37972;DHT22;23794;48.234;8.344;2022-10-22T09:13:50;16.20;99.90
37972;DHT22;23794;48.234;8.344;2022-10-22T09:19:31;16.20;99.90
37972;DHT22;23794;48.234;8.344;2022-10-22T09:25:21;16.50;99.90
37972;DHT22;23794;48.234;8.344;2022-10-22T09:27:49;16.60;99.90
37972;DHT22;23794;48.234;8.344;2022-10-22T09:30:20;16.70;99.90
37972;DHT22;23794;48.234;8.344;2022-10-22T09:32:53;16.70;99.90
37972;DHT22;23794;48.234;8.344;2022-10-22T09:35:22;16.70;99.90
37972;DHT22;23794;48.234;8.344;2022-10-22T09:37:53;16.70;99.90
37972;DHT22;23794;48.234;8.344;2022-10-22T09:40:20;16.80;99.90
37972;DHT22;23794;48.234;8.344;2022-10-22T09:42:48;16.70;99.90
37972;DHT22;23794;48.234;8.344;2022-10-22T09:45:24;16.80;99.90
37972;DHT22;23794;48.234;8.344;2022-10-22T09:48:50;16.90;99.90
37972;DHT22;23794;48.234;8.344;2022-10-22T09:51:10;17.10;99.90
37972;DHT22;23794;48.234;8.344;2022-10-22T09:53:42;17.10;99.90
37972;DHT22;23794;48.234;8.344;2022-10-22T09:56:26;17.10;99.90
37972;DHT22;23794;48.234;8.344;2022-10-22T09:58:57;17.20;99.90
37972;DHT22;23794;48.234;8.344;2022-10-22T10:01:33;17.30;99.90
37972;DHT22;23794;48.234;8.344;2022-10-22T10:04:12;17.30;99.90
37972;DHT22;23794;48.234;8.344;2022-10-22T10:06:42;17.40;99.90
37972;DHT22;23794;48.234;8.344;2022-10-22T10:09:15;17.40;99.90
37972;DHT22;23794;48.234;8.344;2022-10-22T10:12:03;17.60;99.90
37972;DHT22;23794;48.234;8.344;2022-10-22T10:14:52;17.60;99.90
37972;DHT22;23794;48.234;8.344;2022-10-22T10:17:49;17.70;99.90
37972;DHT22;23794;48.234;8.344;2022-10-22T10:20:38;17.70;99.90
37972;DHT22;23794;48.234;8.344;2022-10-22T10:25:47;17.80;99.90
37972;DHT22;23794;48.234;8.344;2022-10-22T10:42:50;18.40;99.90
37972;DHT22;23794;48.234;8.344;2022-10-22T10:45:41;18.50;99.90
37972;DHT22;23794;48.234;8.344;2022-10-22T10:54:00;18.20;99.90
37972;DHT22;23794;48.234;8.344;2022-10-22T10:56:44;18.40;99.90
37972;DHT22;23794;48.234;8.344;2022-10-22T11:07:47;18.10;99.90
37972;DHT22;23794;48.234;8.344;2022-10-22T11:10:34;18.40;99.90
37972;DHT22;23794;48.234;8.344;2022-10-22T11:13:15;18.60;99.90
37972;DHT22;23794;48.234;8.344;2022-10-22T11:15:51;18.70;99.90
37972;DHT22;23794;48.234;8.344;2022-10-22T11:18:33;18.50;99.90
37972;DHT22;23794;48.234;8.344;2022-10-22T11:21:07;18.10;99.90
37972;DHT22;23794;48.234;8.344;2022-10-22T11:23:45;18.10;99.90
37972;DHT22;23794;48.234;8.344;2022-10-22T11:26:22;18.40;99.90
37972;DHT22;23794;48.234;8.344;2022-10-22T11:28:52;18.50;99.90
37972;DHT22;23794;48.234;8.344;2022-10-22T11:31:21;18.70;99.90
37972;DHT22;23794;48.234;8.344;2022-10-22T11:33:52;18.80;99.90
37972;DHT22;23794;48.234;8.344;2022-10-22T11:36:35;18.80;99.90
37972;DHT22;23794;48.234;8.344;2022-10-22T11:39:03;18.80;99.90
37972;DHT22;23794;48.234;8.344;2022-10-22T11:41:32;18.80;99.90
37972;DHT22;23794;48.234;8.344;2022-10-22T11:44:48;19.00;99.90
37972;DHT22;23794;48.234;8.344;2022-10-22T11:47:24;19.10;99.90
37972;DHT22;23794;48.234;8.344;2022-10-22T11:50:15;19.10;99.90
37972;DHT22;23794;48.234;8.344;2022-10-22T11:53:20;19.30;99.90
37972;DHT22;23794;48.234;8.344;2022-10-22T11:55:54;19.40;99.90
37972;DHT22;23794;48.234;8.344;2022-10-22T12:16:34;20.50;99.90
37972;DHT22;23794;48.234;8.344;2022-10-22T12:22:06;20.40;99.90
37972;DHT22;23794;48.234;8.344;2022-10-22T12:24:42;20.40;99.90
37972;DHT22;23794;48.234;8.344;2022-10-22T12:27:26;20.40;99.90
37972;DHT22;23794;48.234;8.344;2022-10-22T12:29:58;20.40;99.90
37972;DHT22;23794;48.234;8.344;2022-10-22T12:32:37;20.50;99.90
37972;DHT22;23794;48.234;8.344;2022-10-22T12:35:06;20.60;99.90
37972;DHT22;23794;48.234;8.344;2022-10-22T12:37:36;20.70;99.90
37972;DHT22;23794;48.234;8.344;2022-10-22T12:40:25;20.80;99.90
37972;DHT22;23794;48.234;8.344;2022-10-22T12:42:57;20.90;99.90
37972;DHT22;23794;48.234;8.344;2022-10-22T12:45:29;20.70;99.90
37972;DHT22;23794;48.234;8.344;2022-10-22T12:47:59;20.80;99.90
37972;DHT22;23794;48.234;8.344;2022-10-22T12:50:35;20.70;99.90
37972;DHT22;23794;48.234;8.344;2022-10-22T12:53:51;20.70;99.90
37972;DHT22;23794;48.234;8.344;2022-10-22T12:55:54;20.60;99.90
37972;DHT22;23794;48.234;8.344;2022-10-22T12:58:26;20.70;99.90
37972;DHT22;23794;48.234;8.344;2022-10-22T13:00:55;20.70;99.90
37972;DHT22;23794;48.234;8.344;2022-10-22T13:03:33;20.60;99.90
37972;DHT22;23794;48.234;8.344;2022-10-22T13:11:40;20.30;99.90
37972;DHT22;23794;48.234;8.344;2022-10-22T13:14:21;20.30;99.90
37972;DHT22;23794;48.234;8.344;2022-10-22T13:17:11;20.10;99.90
37972;DHT22;23794;48.234;8.344;2022-10-22T13:19:45;20.10;99.90
37972;DHT22;23794;48.234;8.344;2022-10-22T13:22:23;20.00;99.90
37972;DHT22;23794;48.234;8.344;2022-10-22T13:24:50;20.20;99.90
37972;DHT22;23794;48.234;8.344;2022-10-22T13:27:17;20.50;99.90
37972;DHT22;23794;48.234;8.344;2022-10-22T13:29:44;20.80;99.90
37972;DHT22;23794;48.234;8.344;2022-10-22T13:32:30;20.70;99.90
37972;DHT22;23794;48.234;8.344;2022-10-22T13:34:59;20.50;99.90
37972;DHT22;23794;48.234;8.344;2022-10-22T13:37:29;20.30;99.90
37972;DHT22;23794;48.234;8.344;2022-10-22T13:39:56;20.10;99.90
37972;DHT22;23794;48.234;8.344;2022-10-22T13:42:23;19.80;99.90
37972;DHT22;23794;48.234;8.344;2022-10-22T13:44:50;19.50;99.90
37972;DHT22;23794;48.234;8.344;2022-10-22T13:47:26;19.30;99.90
37972;DHT22;23794;48.234;8.344;2022-10-22T13:49:56;19.00;99.90
37972;DHT22;23794;48.234;8.344;2022-10-22T13:52:34;18.80;99.90
37972;DHT22;23794;48.234;8.344;2022-10-22T13:55:25;18.60;99.90
37972;DHT22;23794;48.234;8.344;2022-10-22T13:58:13;18.50;99.90
37972;DHT22;23794;48.234;8.344;2022-10-22T14:00:41;18.50;99.90
37972;DHT22;23794;48.234;8.344;2022-10-22T14:03:12;18.30;99.90
37972;DHT22;23794;48.234;8.344;2022-10-22T14:05:39;18.20;99.90
37972;DHT22;23794;48.234;8.344;2022-10-22T14:08:18;17.90;99.90
37972;DHT22;23794;48.234;8.344;2022-10-22T14:10:46;17.90;99.90
37972;DHT22;23794;48.234;8.344;2022-10-22T14:13:15;18.00;99.90
37972;DHT22;23794;48.234;8.344;2022-10-22T14:15:44;17.70;99.90
37972;DHT22;23794;48.234;8.344;2022-10-22T14:18:25;17.50;99.90
37972;DHT22;23794;48.234;8.344;2022-10-22T14:20:57;17.30;99.90
37972;DHT22;23794;48.234;8.344;2022-10-22T14:23:26;17.50;99.90
37972;DHT22;23794;48.234;8.344;2022-10-22T14:25:54;17.40;99.90
37972;DHT22;23794;48.234;8.344;2022-10-22T14:28:20;17.30;99.90
37972;DHT22;23794;48.234;8.344;2022-10-22T14:30:49;17.20;99.90
37972;DHT22;23794;48.234;8.344;2022-10-22T14:33:22;17.10;99.90
37972;DHT22;23794;48.234;8.344;2022-10-22T14:35:58;17.00;99.90
37972;DHT22;23794;48.234;8.344;2022-10-22T14:38:25;16.90;99.90
37972;DHT22;23794;48.234;8.344;2022-10-22T14:40:52;16.70;99.90
37972;DHT22;23794;48.234;8.344;2022-10-22T14:45:47;16.50;99.90
37972;DHT22;23794;48.234;8.344;2022-10-22T14:48:14;16.40;99.90
37972;DHT22;23794;48.234;8.344;2022-10-22T14:50:43;16.30;99.90
37972;DHT22;23794;48.234;8.344;2022-10-22T14:53:10;16.10;99.90
37972;DHT22;23794;48.234;8.344;2022-10-22T14:55:37;15.80;99.90
37972;DHT22;23794;48.234;8.344;2022-10-22T14:58:03;15.80;99.90
37972;DHT22;23794;48.234;8.344;2022-10-22T15:00:30;15.70;99.90
37972;DHT22;23794;48.234;8.344;2022-10-22T15:02:57;15.30;99.90
37972;DHT22;23794;48.234;8.344;2022-10-22T15:05:29;15.30;99.90
37972;DHT22;23794;48.234;8.344;2022-10-22T15:07:56;15.40;99.90
37972;DHT22;23794;48.234;8.344;2022-10-22T15:10:25;15.30;99.90
37972;DHT22;23794;48.234;8.344;2022-10-22T15:12:52;15.30;99.90
37972;DHT22;23794;48.234;8.344;2022-10-22T15:15:18;15.30;99.90
37972;DHT22;23794;48.234;8.344;2022-10-22T15:17:48;15.20;99.90
37972;DHT22;23794;48.234;8.344;2022-10-22T15:20:15;15.30;99.90
37972;DHT22;23794;48.234;8.344;2022-10-22T15:22:42;15.10;99.90
37972;DHT22;23794;48.234;8.344;2022-10-22T15:25:10;15.10;99.90
37972;DHT22;23794;48.234;8.344;2022-10-22T15:27:38;15.10;99.90
37972;DHT22;23794;48.234;8.344;2022-10-22T15:30:06;15.10;99.90
37972;DHT22;23794;48.234;8.344;2022-10-22T15:32:33;15.10;99.90
37972;DHT22;23794;48.234;8.344;2022-10-22T15:35:00;15.00;99.90
37972;DHT22;23794;48.234;8.344;2022-10-22T15:37:27;15.00;99.90
37972;DHT22;23794;48.234;8.344;2022-10-22T15:39:53;15.00;99.90
37972;DHT22;23794;48.234;8.344;2022-10-22T15:42:20;14.90;99.90
37972;DHT22;23794;48.234;8.344;2022-10-22T15:44:48;14.90;99.90
37972;DHT22;23794;48.234;8.344;2022-10-22T15:47:22;14.80;99.90
37972;DHT22;23794;48.234;8.344;2022-10-22T15:49:50;14.80;99.90
37972;DHT22;23794;48.234;8.344;2022-10-22T15:52:17;14.70;99.90
37972;DHT22;23794;48.234;8.344;2022-10-22T15:54:44;14.50;99.90
37972;DHT22;23794;48.234;8.344;2022-10-22T15:57:11;14.50;99.90
37972;DHT22;23794;48.234;8.344;2022-10-22T15:59:37;14.50;99.90
37972;DHT22;23794;48.234;8.344;2022-10-22T16:02:04;14.40;99.90
37972;DHT22;23794;48.234;8.344;2022-10-22T16:04:32;14.30;99.90
37972;DHT22;23794;48.234;8.344;2022-10-22T16:06:59;14.30;99.90
37972;DHT22;23794;48.234;8.344;2022-10-22T16:09:26;14.30;99.90
37972;DHT22;23794;48.234;8.344;2022-10-22T16:11:54;14.20;99.90
37972;DHT22;23794;48.234;8.344;2022-10-22T16:14:21;14.00;99.90
37972;DHT22;23794;48.234;8.344;2022-10-22T16:16:51;14.00;99.90
37972;DHT22;23794;48.234;8.344;2022-10-22T16:19:20;14.00;99.90
37972;DHT22;23794;48.234;8.344;2022-10-22T16:21:49;13.90;99.90
37972;DHT22;23794;48.234;8.344;2022-10-22T16:24:17;13.80;99.90
37972;DHT22;23794;48.234;8.344;2022-10-22T16:26:45;13.80;99.90
37972;DHT22;23794;48.234;8.344;2022-10-22T16:29:11;13.70;99.90
37972;DHT22;23794;48.234;8.344;2022-10-22T16:31:39;13.70;99.90
37972;DHT22;23794;48.234;8.344;2022-10-22T16:34:06;13.70;99.90
37972;DHT22;23794;48.234;8.344;2022-10-22T16:36:33;13.60;99.90
37972;DHT22;23794;48.234;8.344;2022-10-22T16:39:02;13.60;99.90
37972;DHT22;23794;48.234;8.344;2022-10-22T16:41:30;13.50;99.90
37972;DHT22;23794;48.234;8.344;2022-10-22T16:44:03;13.40;99.90
37972;DHT22;23794;48.234;8.344;2022-10-22T16:46:31;13.30;99.90
37972;DHT22;23794;48.234;8.344;2022-10-22T16:48:59;13.30;99.90
37972;DHT22;23794;48.234;8.344;2022-10-22T16:51:26;13.20;99.90
37972;DHT22;23794;48.234;8.344;2022-10-22T16:53:55;13.20;99.90
37972;DHT22;23794;48.234;8.344;2022-10-22T16:56:23;13.20;99.90
37972;DHT22;23794;48.234;8.344;2022-10-22T16:58:52;13.10;99.90
37972;DHT22;23794;48.234;8.344;2022-10-22T17:01:21;13.10;99.90
37972;DHT22;23794;48.234;8.344;2022-10-22T17:03:49;13.00;99.90
37972;DHT22;23794;48.234;8.344;2022-10-22T17:06:16;13.00;99.90
37972;DHT22;23794;48.234;8.344;2022-10-22T17:08:43;12.80;99.90
37972;DHT22;23794;48.234;8.344;2022-10-22T17:11:15;12.60;99.90
37972;DHT22;23794;48.234;8.344;2022-10-22T17:13:45;12.50;99.90
37972;DHT22;23794;48.234;8.344;2022-10-22T17:16:14;12.50;99.90
37972;DHT22;23794;48.234;8.344;2022-10-22T17:18:42;12.60;99.90
37972;DHT22;23794;48.234;8.344;2022-10-22T17:21:12;12.60;99.90
37972;DHT22;23794;48.234;8.344;2022-10-22T17:23:40;12.60;99.90
37972;DHT22;23794;48.234;8.344;2022-10-22T17:26:16;12.60;99.90
37972;DHT22;23794;48.234;8.344;2022-10-22T17:28:43;12.60;99.90
37972;DHT22;23794;48.234;8.344;2022-10-22T17:33:43;12.50;99.90
37972;DHT22;23794;48.234;8.344;2022-10-22T17:36:11;12.40;99.90
37972;DHT22;23794;48.234;8.344;2022-10-22T17:38:40;12.40;99.90
37972;DHT22;23794;48.234;8.344;2022-10-22T17:41:09;12.30;99.90